Terminal Aerodrome Forecast
Issued by NWS

Home | Current Version | Previous Version | Text Only | Print | Product List | Glossary Off
Versions: 1 2 3 4 5 6 7 8 9 10 11 12 13 14 15 16 17 18

486
FTUS43 KTOP 111459 AAB
TAFMHK
TAF AMD
KMHK 111459Z 1115/1212 06007KT P6SM BKN009
     FM111700 09006KT P6SM BKN015
     FM111900 18008KT P6SM SCT025 BKN150
     FM120800 35010G18KT P6SM SCT020=

USA.gov is the U.S. government's official web portal to all federal, state and local government web resources and services.